Time;durP1;ratioP1;P1;durP2;ratioP2;P2;SDS_P1;SDS_P2;PMS_P1;PMS_P2;Temp;Humidity;BMP_temperature;BMP_pressure;BME280_temperature;BME280_humidity;BME280_pressure;Samples;Min_cycle;Max_cycle;Signal;HPM_P1;HPM_P2
2021/10/07 00:00:35;;;;;;;46.63;11.15;;;;;;;7.06;100.00;98519.50;4996295;28;20077;-79
2021/10/07 00:03:01;;;;;;;62.15;14.05;;;;;;;6.99;100.00;98526.22;4979948;28;20038;-82
2021/10/07 00:05:28;;;;;;;49.25;12.27;;;;;;;6.93;100.00;98522.72;4997389;28;20050;-79
2021/10/07 00:07:55;;;;;;;38.35;9.57;;;;;;;6.85;100.00;98520.56;4999528;28;20060;-79
2021/10/07 00:10:23;;;;;;;22.90;7.05;;;;;;;6.85;100.00;98518.69;4998275;28;20137;-78
2021/10/07 00:12:50;;;;;;;23.17;7.00;;;;;;;6.64;100.00;98524.31;4998130;28;20132;-79
2021/10/07 00:15:16;;;;;;;31.17;8.32;;;;;;;6.75;100.00;98531.31;4998262;28;20092;-81
2021/10/07 00:17:43;;;;;;;34.15;7.78;;;;;;;6.76;100.00;98530.25;5001339;28;20070;-79
2021/10/07 00:20:13;;;;;;;23.95;6.70;;;;;;;6.56;100.00;98520.28;4998657;28;20053;-81
2021/10/07 00:22:40;;;;;;;18.58;5.72;;;;;;;6.59;100.00;98527.00;4998697;28;20038;-79
2021/10/07 00:25:08;;;;;;;14.30;5.82;;;;;;;6.52;100.00;98519.19;4998844;28;20116;-82
2021/10/07 00:27:35;;;;;;;13.23;5.38;;;;;;;6.67;100.00;98534.53;4999891;28;20102;-82
2021/10/07 00:30:18;;;;;;;18.88;6.28;;;;;;;6.69;100.00;98529.69;4997748;28;20047;-80
2021/10/07 00:33:07;;;;;;;12.48;5.63;;;;;;;6.72;100.00;98527.28;4995636;28;20058;-81
2021/10/07 00:35:51;;;;;;;13.07;5.80;;;;;;;6.65;100.00;98520.56;4998119;28;20058;-78
2021/10/07 00:41:03;;;;;;;15.17;4.80;;;;;;;6.48;100.00;98506.56;5000400;28;20060;-82
2021/10/07 00:43:30;;;;;;;13.98;4.80;;;;;;;6.40;100.00;98513.25;4982063;28;20062;-81
2021/10/07 00:46:00;;;;;;;15.13;5.40;;;;;;;6.51;100.00;98525.66;4998578;28;20053;-81
2021/10/07 00:48:26;;;;;;;11.32;4.70;;;;;;;6.52;100.00;98513.81;4982167;28;20047;-79
2021/10/07 00:50:53;;;;;;;10.40;4.53;;;;;;;6.59;100.00;98524.31;4997716;28;20047;-81
2021/10/07 00:53:21;;;;;;;16.20;5.35;;;;;;;6.65;100.00;98518.69;4983506;28;20061;-82
2021/10/07 00:55:48;;;;;;;12.93;4.72;;;;;;;6.59;100.00;98525.13;5002474;28;20046;-81
2021/10/07 00:58:16;;;;;;;15.63;5.07;;;;;;;6.56;100.00;98522.97;4985081;28;20054;-80
2021/10/07 01:00:43;;;;;;;15.30;5.53;;;;;;;6.43;100.00;98530.72;5002651;28;20395;-78
2021/10/07 01:03:13;;;;;;;15.13;5.18;;;;;;;6.38;100.00;98539.59;4985773;28;20046;-82
2021/10/07 01:05:40;;;;;;;14.57;5.05;;;;;;;6.27;100.00;98540.66;5002886;28;20050;-79
2021/10/07 01:08:07;;;;;;;11.77;4.88;;;;;;;6.22;100.00;98532.56;4998307;28;20481;-80
2021/10/07 01:10:35;;;;;;;20.23;5.97;;;;;;;6.20;100.00;98524.78;5003932;28;20027;-79
2021/10/07 01:13:02;;;;;;;7.28;4.10;;;;;;;6.21;100.00;98536.34;5000101;28;20100;-79
2021/10/07 01:15:29;;;;;;;15.55;5.30;;;;;;;6.15;100.00;98540.88;5002588;28;20068;-79
2021/10/07 01:17:55;;;;;;;12.90;4.68;;;;;;;5.99;100.00;98538.41;5000105;28;20054;-79
2021/10/07 01:20:22;;;;;;;13.65;5.05;;;;;;;5.92;100.00;98519.03;4999383;28;20066;-81
2021/10/07 01:22:49;;;;;;;9.40;4.53;;;;;;;6.07;100.00;98519.06;4999279;28;20105;-80
2021/10/07 01:25:15;;;;;;;15.70;4.90;;;;;;;6.12;100.00;98525.28;4998481;28;20082;-79
2021/10/07 01:27:51;;;;;;;13.88;4.68;;;;;;;6.21;100.00;98534.47;5005116;28;20114;-83
2021/10/07 01:30:18;;;;;;;10.77;4.68;;;;;;;6.13;100.00;98534.97;5005555;28;20046;-80
2021/10/07 01:32:44;;;;;;;10.15;5.05;;;;;;;6.13;100.00;98543.03;5000634;28;20125;-81
2021/10/07 01:35:12;;;;;;;11.57;4.97;;;;;;;6.12;100.00;98540.59;5005901;28;20042;-82
2021/10/07 01:37:38;;;;;;;16.25;5.30;;;;;;;6.15;100.00;98553.50;5013853;28;20051;-77
2021/10/07 01:40:08;;;;;;;11.15;4.80;;;;;;;6.11;100.00;98545.19;5015616;28;20031;-79
2021/10/07 01:42:38;;;;;;;12.60;5.20;;;;;;;6.04;100.00;98554.56;5014372;28;20073;-80
2021/10/07 01:45:05;;;;;;;10.07;4.68;;;;;;;6.03;100.00;98545.69;5018708;23;20046;-78
2021/10/07 01:47:32;;;;;;;11.05;4.40;;;;;;;6.02;100.00;98546.75;4934068;29;20043;-79
2021/10/07 01:49:59;;;;;;;11.18;4.97;;;;;;;6.00;100.00;98534.66;4963849;28;20031;-79
2021/10/07 01:52:26;;;;;;;12.75;5.22;;;;;;;5.90;100.00;98522.00;4961845;28;20118;-79
2021/10/07 01:54:53;;;;;;;17.02;5.65;;;;;;;5.91;100.00;98530.88;4947066;29;20047;-78
2021/10/07 01:57:20;;;;;;;12.25;4.72;;;;;;;5.73;100.00;98536.66;4930254;29;20111;-78
2021/10/07 01:59:46;;;;;;;16.35;5.20;;;;;;;5.67;100.00;98554.63;4930965;29;20043;-79
2021/10/07 02:02:13;;;;;;;12.27;5.38;;;;;;;5.71;100.00;98563.75;4929263;29;20043;-79
2021/10/07 02:04:40;;;;;;;9.95;4.70;;;;;;;5.63;100.00;98543.59;4945338;29;20680;-78
2021/10/07 02:07:07;;;;;;;10.27;5.07;;;;;;;5.70;100.00;98561.34;4961884;28;20047;-78
2021/10/07 02:09:33;;;;;;;9.77;4.40;;;;;;;5.61;100.00;98569.91;4961043;28;20484;-79
2021/10/07 02:12:00;;;;;;;11.60;4.90;;;;;;;5.61;100.00;98561.03;4943151;29;20433;-78
2021/10/07 02:14:27;;;;;;;11.75;5.25;;;;;;;5.61;100.00;98552.97;4943730;29;20047;-79
2021/10/07 02:16:53;;;;;;;16.38;5.47;;;;;;;5.61;100.00;98550.28;4959548;28;20054;-79
2021/10/07 02:19:20;;;;;;;12.65;5.30;;;;;;;5.56;100.00;98556.44;4959811;28;20051;-79
2021/10/07 02:21:47;;;;;;;11.80;4.70;;;;;;;5.65;100.00;98580.94;4943653;29;20043;-79
2021/10/07 02:24:14;;;;;;;10.80;5.35;;;;;;;5.48;100.00;98569.53;4961951;28;20031;-80
2021/10/07 02:26:40;;;;;;;10.20;4.97;;;;;;;5.56;100.00;98566.38;4943122;29;20047;-78
2021/10/07 02:29:07;;;;;;;11.25;5.25;;;;;;;5.36;100.00;98572.44;4943463;29;20047;-78
2021/10/07 02:31:34;;;;;;;11.50;4.35;;;;;;;5.45;100.00;98565.50;4961304;28;20039;-79
2021/10/07 02:34:01;;;;;;;10.60;5.10;;;;;;;5.60;100.00;98599.72;4958398;28;20393;-78
2021/10/07 02:36:27;;;;;;;12.68;4.53;;;;;;;5.48;100.00;98599.06;4942252;29;20039;-78
2021/10/07 02:38:54;;;;;;;12.07;4.47;;;;;;;5.48;100.00;98599.88;4921190;29;20514;-78
2021/10/07 02:41:21;;;;;;;7.80;4.28;;;;;;;5.49;100.00;98612.25;4936428;29;20043;-78
2021/10/07 02:43:48;;;;;;;10.23;4.88;;;;;;;5.57;100.00;98608.28;4954436;28;20047;-78
2021/10/07 02:46:14;;;;;;;11.95;5.25;;;;;;;5.57;100.00;98611.75;4921135;29;20046;-77
2021/10/07 02:48:42;;;;;;;17.25;6.18;;;;;;;5.71;100.00;98617.50;4953319;28;20047;-77
2021/10/07 02:51:09;;;;;;;9.80;5.50;;;;;;;5.78;100.00;98618.06;4954165;28;20050;-78
2021/10/07 02:53:37;;;;;;;11.52;5.82;;;;;;;5.73;100.00;98609.97;4937076;29;20097;-78
2021/10/07 02:56:05;;;;;;;8.95;4.70;;;;;;;5.66;100.00;98609.41;4939531;29;20110;-78
2021/10/07 02:58:34;;;;;;;11.70;4.80;;;;;;;5.61;100.00;98622.81;4956385;28;20046;-78
2021/10/07 03:01:01;;;;;;;11.90;4.43;;;;;;;5.66;100.00;98626.34;4954039;28;20043;-78
2021/10/07 03:03:29;;;;;;;11.95;4.63;;;;;;;5.69;100.00;98627.69;4954094;29;20406;-78
2021/10/07 03:05:55;;;;;;;12.70;5.10;;;;;;;5.62;100.00;98624.44;4938348;28;20050;-78
2021/10/07 03:08:27;;;;;;;11.48;5.80;;;;;;;5.53;100.00;98618.72;4954490;28;20049;-78
2021/10/07 03:10:55;;;;;;;11.02;5.32;;;;;;;5.60;100.00;98616.63;4960820;29;20071;-79
2021/10/07 03:13:22;;;;;;;10.95;5.63;;;;;;;5.66;100.00;98628.22;4945720;29;20071;-78
2021/10/07 03:15:49;;;;;;;15.07;6.55;;;;;;;5.75;100.00;98629.34;4944172;28;20039;-80
2021/10/07 03:18:16;;;;;;;14.40;6.25;;;;;;;5.63;100.00;98621.47;4960931;28;20050;-79
2021/10/07 03:20:43;;;;;;;11.10;5.60;;;;;;;5.55;100.00;98627.31;4963155;28;20310;-78
2021/10/07 03:23:09;;;;;;;18.13;6.18;;;;;;;5.57;100.00;98624.41;4951588;28;20039;-78
2021/10/07 03:25:36;;;;;;;10.63;5.15;;;;;;;5.66;100.00;98631.72;4945304;28;20048;-78
2021/10/07 03:28:03;;;;;;;10.82;5.63;;;;;;;5.65;100.00;98618.56;4931895;29;20670;-79
2021/10/07 03:30:30;;;;;;;12.27;6.28;;;;;;;5.68;100.00;98628.75;4922623;29;20110;-78
2021/10/07 03:32:57;;;;;;;12.02;5.82;;;;;;;5.62;100.00;98627.13;4950880;28;20046;-79
2021/10/07 03:35:23;;;;;;;11.00;5.05;;;;;;;5.61;100.00;98623.63;4951182;29;20227;-80
2021/10/07 03:37:50;;;;;;;9.07;5.18;;;;;;;5.57;100.00;98622.50;4944746;29;20035;-79
2021/10/07 03:40:16;;;;;;;12.05;5.75;;;;;;;5.43;100.00;98632.09;4961567;28;20106;-79
2021/10/07 03:42:43;;;;;;;18.80;6.28;;;;;;;5.41;100.00;98636.91;4945860;29;20057;-80
2021/10/07 03:45:09;;;;;;;11.70;6.30;;;;;;;5.17;100.00;98632.13;4962864;28;20288;-78
2021/10/07 03:47:36;;;;;;;14.05;6.25;;;;;;;5.38;100.00;98621.31;4930846;29;20051;-80
2021/10/07 03:50:04;;;;;;;13.68;6.10;;;;;;;5.30;100.00;98631.69;4947805;29;20049;-80
2021/10/07 03:52:30;;;;;;;10.55;5.57;;;;;;;5.33;100.00;98640.06;4945913;29;20074;-78
2021/10/07 03:54:57;;;;;;;14.00;6.97;;;;;;;5.42;100.00;98640.41;4960524;29;20054;-79
2021/10/07 03:57:26;;;;;;;15.60;7.50;;;;;;;5.32;100.00;98638.44;4943229;29;20495;-79
2021/10/07 03:59:52;;;;;;;16.13;7.32;;;;;;;5.36;100.00;98642.25;4936722;29;20415;-79
2021/10/07 04:02:19;;;;;;;13.63;6.45;;;;;;;5.33;100.00;98637.38;4937412;29;20043;-79
2021/10/07 04:04:47;;;;;;;9.45;4.95;;;;;;;5.24;100.00;98635.41;4918347;29;20051;-77
2021/10/07 04:07:14;;;;;;;11.65;5.93;;;;;;;5.13;100.00;98636.38;4905048;29;20139;-79
2021/10/07 04:09:40;;;;;;;14.52;5.95;;;;;;;5.11;100.00;98649.25;4902153;29;20051;-79
2021/10/07 04:12:09;;;;;;;14.45;6.07;;;;;;;5.14;100.00;98646.03;4901656;29;20138;-79
2021/10/07 04:14:36;;;;;;;16.00;6.28;;;;;;;5.08;100.00;98647.09;4902712;29;20147;-77
2021/10/07 04:17:03;;;;;;;15.52;5.88;;;;;;;5.13;100.00;98649.81;4903754;29;20051;-80
2021/10/07 04:19:34;;;;;;;14.48;6.00;;;;;;;5.00;100.00;98651.84;4933503;29;20047;-78
2021/10/07 04:22:02;;;;;;;12.02;6.32;;;;;;;5.04;100.00;98642.22;4901989;29;20592;-78
2021/10/07 04:24:29;;;;;;;10.63;6.05;;;;;;;4.86;100.00;98650.63;4916930;29;20135;-79
2021/10/07 04:26:55;;;;;;;14.45;5.95;;;;;;;4.98;100.00;98656.63;4899439;29;20075;-79
2021/10/07 04:29:22;;;;;;;12.20;6.00;;;;;;;5.03;100.00;98662.06;4905765;29;20106;-78
2021/10/07 04:31:49;;;;;;;13.93;6.53;;;;;;;5.06;100.00;98666.09;4906022;29;20099;-77
2021/10/07 04:34:16;;;;;;;10.77;6.05;;;;;;;5.04;100.00;98668.25;4906762;29;20552;-79
2021/10/07 04:36:43;;;;;;;12.30;6.63;;;;;;;5.08;100.00;98674.72;4906512;29;20548;-77
2021/10/07 04:39:10;;;;;;;11.25;5.82;;;;;;;5.08;100.00;98665.88;4907380;29;20601;-78
2021/10/07 04:41:38;;;;;;;12.02;5.20;;;;;;;5.01;100.00;98661.50;4945021;29;20118;-79
2021/10/07 04:44:05;;;;;;;13.68;5.30;;;;;;;4.99;100.00;98682.41;4923692;29;20142;-78
2021/10/07 04:46:32;;;;;;;11.95;5.68;;;;;;;5.03;100.00;98690.78;4906661;29;20416;-79
2021/10/07 04:48:59;;;;;;;11.20;4.97;;;;;;;5.03;100.00;98694.25;4908079;29;20139;-78
2021/10/07 04:51:26;;;;;;;11.85;6.13;;;;;;;5.02;100.00;98697.22;4908155;29;20071;-79
2021/10/07 04:53:53;;;;;;;10.07;5.90;;;;;;;4.81;100.00;98690.00;4906209;29;20500;-78
2021/10/07 04:56:19;;;;;;;14.25;5.88;;;;;;;4.60;100.00;98698.88;4936908;29;20500;-77
2021/10/07 04:58:46;;;;;;;12.65;6.22;;;;;;;4.76;100.00;98698.00;4905444;29;20083;-80
2021/10/07 05:01:19;;;;;;;20.40;6.97;;;;;;;4.79;100.00;98700.19;4912931;29;20106;-77
2021/10/07 05:03:48;;;;;;;11.52;6.30;;;;;;;4.75;100.00;98702.53;4924461;29;20075;-79
2021/10/07 05:06:16;;;;;;;14.15;5.90;;;;;;;4.85;100.00;98705.34;4925215;29;20090;-78
2021/10/07 05:08:42;;;;;;;11.82;5.68;;;;;;;4.77;100.00;98708.47;4924288;29;20055;-78
2021/10/07 05:11:09;;;;;;;26.55;9.43;;;;;;;4.86;100.00;98714.19;4939568;29;20530;-79
2021/10/07 05:13:35;;;;;;;23.83;8.90;;;;;;;4.86;100.00;98719.56;4922538;29;20534;-78
2021/10/07 05:16:02;;;;;;;29.85;11.48;;;;;;;4.92;100.00;98721.25;4921490;29;20051;-78
2021/10/07 05:18:29;;;;;;;50.72;17.42;;;;;;;5.01;100.00;98725.09;4922520;29;20047;-79
2021/10/07 05:20:56;;;;;;;46.55;16.92;;;;;;;5.05;100.00;98728.91;4938632;29;20051;-78
2021/10/07 05:23:23;;;;;;;73.07;22.73;;;;;;;5.14;100.00;98726.56;4922253;29;20134;-77
2021/10/07 05:25:50;;;;;;;58.13;20.65;;;;;;;5.09;100.00;98738.06;4922064;28;20094;-77
2021/10/07 05:28:16;;;;;;;29.08;10.60;;;;;;;5.07;100.00;98742.06;4922489;29;20151;-78
2021/10/07 05:30:43;;;;;;;24.98;10.07;;;;;;;5.03;100.00;98745.25;4937743;29;20047;-82
2021/10/07 05:33:10;;;;;;;34.00;12.93;;;;;;;4.94;100.00;98740.59;4937795;29;20061;-79
2021/10/07 05:35:36;;;;;;;32.38;13.40;;;;;;;4.90;100.00;98753.69;4922437;28;20145;-78
2021/10/07 05:38:03;;;;;;;42.92;15.13;;;;;;;4.96;100.00;98762.59;4937405;28;20212;-78
2021/10/07 05:40:31;;;;;;;54.45;19.60;;;;;;;4.98;100.00;98763.97;4937524;29;20134;-78
2021/10/07 05:42:57;;;;;;;56.63;21.30;;;;;;;5.10;100.00;98763.84;4937716;29;20083;-77
2021/10/07 05:45:24;;;;;;;32.25;12.63;;;;;;;5.05;100.00;98761.13;4922272;29;20051;-78
2021/10/07 05:47:51;;;;;;;21.25;9.07;;;;;;;5.00;100.00;98764.56;4921647;29;20078;-77
2021/10/07 05:50:17;;;;;;;26.40;9.98;;;;;;;4.86;100.00;98760.63;4922689;29;20150;-79
2021/10/07 05:52:46;;;;;;;28.63;11.05;;;;;;;4.84;100.00;98754.69;4939239;23;20055;-83
2021/10/07 05:55:18;;;;;;;43.67;15.63;;;;;;;4.98;100.00;98763.19;4978451;28;20045;-82
2021/10/07 05:57:44;;;;;;;43.47;15.20;;;;;;;5.18;100.00;98776.81;4962382;28;20066;-83
2021/10/07 06:00:12;;;;;;;29.85;11.63;;;;;;;5.09;100.00;98769.44;4978521;28;20414;-82
2021/10/07 06:02:39;;;;;;;33.13;12.00;;;;;;;5.06;100.00;98761.94;4978176;28;20141;-82
2021/10/07 06:05:09;;;;;;;36.67;12.57;;;;;;;5.26;100.00;98772.88;4961761;28;20662;-82
2021/10/07 06:07:36;;;;;;;32.88;11.80;;;;;;;5.23;100.00;98759.97;4977563;28;20674;-83
2021/10/07 06:10:06;;;;;;;29.25;11.88;;;;;;;5.38;100.00;98766.28;4978538;28;20125;-83
2021/10/07 06:12:33;;;;;;;25.85;10.23;;;;;;;5.47;100.00;98762.06;4979489;28;20173;-83
2021/10/07 06:15:01;;;;;;;45.20;13.82;;;;;;;5.65;100.00;98777.03;4978813;28;20062;-82
2021/10/07 06:17:27;;;;;;;43.55;14.00;;;;;;;5.66;100.00;98773.25;4996102;28;20121;-83
2021/10/07 06:20:04;;;;;;;51.22;15.45;;;;;;;5.73;100.00;98787.28;4978420;28;20042;-84
2021/10/07 06:22:31;;;;;;;83.20;23.95;;;;;;;5.81;100.00;98786.03;4978652;28;20069;-83
2021/10/07 06:24:58;;;;;;;88.90;26.33;;;;;;;5.79;100.00;98783.59;4978135;28;20057;-83
2021/10/07 06:27:25;;;;;;;85.50;25.83;;;;;;;5.83;100.00;98800.84;4977609;28;20056;-84
2021/10/07 06:29:52;;;;;;;72.63;20.17;;;;;;;5.94;100.00;98778.38;4977658;28;20073;-83
2021/10/07 06:32:19;;;;;;;41.72;16.23;;;;;;;6.16;100.00;98789.84;4961475;28;20070;-83
2021/10/07 06:34:45;;;;;;;47.00;16.38;;;;;;;6.29;100.00;98791.28;4994977;28;20160;-83
2021/10/07 06:37:12;;;;;;;30.67;11.55;;;;;;;6.46;100.00;98796.47;4961352;28;20050;-84
2021/10/07 06:39:39;;;;;;;22.17;10.48;;;;;;;6.67;100.00;98803.59;4980185;28;20414;-83
2021/10/07 06:42:05;;;;;;;18.77;10.23;;;;;;;6.84;100.00;98806.91;4988311;28;20073;-83
2021/10/07 06:44:32;;;;;;;27.08;10.40;;;;;;;7.05;100.00;98792.47;5003907;28;20047;-84
2021/10/07 06:46:59;;;;;;;22.50;10.43;;;;;;;7.17;100.00;98786.88;4970809;28;20053;-83
2021/10/07 06:49:26;;;;;;;20.33;10.50;;;;;;;7.32;100.00;98798.50;4961257;28;20070;-82
2021/10/07 06:51:53;;;;;;;22.48;12.40;;;;;;;7.57;100.00;98811.22;4960771;28;20046;-83
2021/10/07 06:54:20;;;;;;;41.50;19.70;;;;;;;7.74;100.00;98802.91;4977118;28;20118;-83
2021/10/07 06:56:47;;;;;;;49.47;25.70;;;;;;;7.92;100.00;98813.97;4961146;28;20077;-82
2021/10/07 06:59:13;;;;;;;38.05;19.50;;;;;;;8.11;100.00;98814.25;4994297;28;20070;-82
2021/10/07 07:01:40;;;;;;;26.83;14.73;;;;;;;8.24;100.00;98818.28;4975592;28;20046;-83
2021/10/07 07:04:07;;;;;;;25.80;12.43;;;;;;;8.42;100.00;98823.97;4960416;28;20042;-82
2021/10/07 07:06:34;;;;;;;21.52;12.27;;;;;;;8.60;100.00;98819.91;4992818;28;20042;-83
2021/10/07 07:09:01;;;;;;;24.17;11.82;;;;;;;8.76;100.00;98824.19;4987774;28;20113;-83
2021/10/07 07:11:28;;;;;;;20.73;11.38;;;;;;;8.96;100.00;98839.50;4974129;28;20046;-83
2021/10/07 07:13:55;;;;;;;18.35;10.80;;;;;;;9.06;100.00;98847.63;4987150;28;20065;-83
2021/10/07 07:16:22;;;;;;;20.23;9.90;;;;;;;9.10;100.00;98841.38;4969859;28;20137;-83
2021/10/07 07:18:49;;;;;;;20.42;9.68;;;;;;;9.18;100.00;98831.91;4968842;28;20431;-83
2021/10/07 07:21:19;;;;;;;17.95;9.15;;;;;;;9.30;100.00;98822.38;4986187;28;20057;-83
2021/10/07 07:23:46;;;;;;;20.90;9.68;;;;;;;9.55;100.00;98845.75;4984711;28;20050;-84
2021/10/07 07:26:14;;;;;;;19.73;9.57;;;;;;;9.61;100.00;98855.47;4982954;28;20057;-84
2021/10/07 07:28:41;;;;;;;22.55;10.25;;;;;;;9.75;100.00;98850.25;4996321;28;20050;-83
2021/10/07 07:31:07;;;;;;;20.60;10.00;;;;;;;9.82;100.00;98856.97;4980246;28;20050;-83
2021/10/07 07:33:34;;;;;;;40.92;16.92;;;;;;;10.11;100.00;98856.25;4986740;28;20042;-82
2021/10/07 07:36:01;;;;;;;23.75;10.05;;;;;;;10.16;100.00;98845.41;4976872;28;20429;-83
2021/10/07 07:38:28;;;;;;;19.58;8.73;;;;;;;10.32;100.00;98853.16;4977074;28;20042;-84
2021/10/07 07:40:54;;;;;;;16.23;8.68;;;;;;;10.55;100.00;98860.53;4981056;28;20422;-81
2021/10/07 07:43:21;;;;;;;18.88;9.10;;;;;;;10.73;100.00;98861.72;4995204;28;20065;-82
2021/10/07 07:45:49;;;;;;;15.02;8.00;;;;;;;10.88;100.00;98861.56;4978481;28;20046;-82
2021/10/07 07:48:17;;;;;;;18.42;8.13;;;;;;;10.80;100.00;98856.75;4978613;28;20064;-83
2021/10/07 07:50:44;;;;;;;17.58;8.40;;;;;;;10.95;100.00;98853.88;4969233;28;20069;-82
2021/10/07 07:53:11;;;;;;;17.15;8.00;;;;;;;11.19;100.00;98853.91;5006725;28;20054;-81
2021/10/07 07:55:38;;;;;;;18.15;7.00;;;;;;;11.17;100.00;98853.38;5003455;28;20066;-83
2021/10/07 07:58:05;;;;;;;12.00;6.22;;;;;;;11.17;100.00;98851.47;5003902;28;20065;-82
2021/10/07 08:00:31;;;;;;;12.68;5.13;;;;;;;11.50;100.00;98849.72;5004304;28;20042;-82
2021/10/07 08:02:58;;;;;;;11.52;5.43;;;;;;;11.71;100.00;98861.16;5002517;28;20054;-82
2021/10/07 08:05:25;;;;;;;14.13;5.65;;;;;;;11.88;100.00;98856.00;5020938;28;20045;-82
2021/10/07 08:07:52;;;;;;;11.20;5.60;;;;;;;12.04;100.00;98862.84;5002446;28;20046;-82
2021/10/07 08:10:23;;;;;;;10.10;5.00;;;;;;;12.14;100.00;98870.81;5019444;28;20060;-82
2021/10/07 08:12:50;;;;;;;7.60;4.93;;;;;;;12.14;100.00;98859.16;4999905;28;20067;-82
2021/10/07 08:15:17;;;;;;;10.65;5.35;;;;;;;12.28;100.00;98868.19;5016517;28;20049;-83
2021/10/07 08:17:44;;;;;;;9.10;4.30;;;;;;;12.20;100.00;98868.84;5017113;28;20129;-83
2021/10/07 08:20:13;;;;;;;8.35;4.60;;;;;;;12.33;100.00;98877.06;5000058;28;20053;-82
2021/10/07 08:22:40;;;;;;;12.20;4.90;;;;;;;12.43;100.00;98871.47;5016865;28;20060;-82
2021/10/07 08:25:09;;;;;;;11.88;4.43;;;;;;;12.53;100.00;98870.47;4999690;28;20038;-83
2021/10/07 08:27:37;;;;;;;9.73;4.80;;;;;;;12.49;100.00;98874.91;4998336;28;20049;-83
2021/10/07 08:30:06;;;;;;;11.98;4.60;;;;;;;12.61;100.00;98879.84;4999165;28;20054;-83
2021/10/07 08:32:33;;;;;;;7.20;4.18;;;;;;;12.65;100.00;98881.69;5016406;28;20052;-82
2021/10/07 08:34:59;;;;;;;8.98;3.47;;;;;;;12.86;100.00;98882.13;5016219;28;20042;-82
2021/10/07 08:37:27;;;;;;;9.02;4.10;;;;;;;13.06;100.00;98879.03;4982998;28;20057;-82
2021/10/07 08:39:54;;;;;;;5.78;2.97;;;;;;;13.15;100.00;98876.47;5016794;28;20041;-82
2021/10/07 08:42:21;;;;;;;9.30;3.67;;;;;;;13.35;100.00;98870.63;4983699;28;20145;-83
2021/10/07 08:44:48;;;;;;;7.00;3.05;;;;;;;13.44;100.00;98877.81;5000506;28;20042;-82
2021/10/07 08:47:19;;;;;;;6.82;3.45;;;;;;;13.53;100.00;98878.69;5009326;28;20033;-83
2021/10/07 08:49:48;;;;;;;8.70;3.25;;;;;;;13.32;100.00;98874.75;5000752;28;20065;-82
2021/10/07 08:52:15;;;;;;;5.65;3.50;;;;;;;13.65;100.00;98870.81;4998738;28;20052;-83
2021/10/07 08:54:42;;;;;;;8.18;3.35;;;;;;;13.94;100.00;98875.09;4998916;28;20056;-83
2021/10/07 08:57:09;;;;;;;6.45;3.65;;;;;;;13.94;100.00;98885.97;4981205;28;20445;-82
2021/10/07 08:59:37;;;;;;;8.93;3.38;;;;;;;13.93;100.00;98884.38;4997894;28;20560;-82
2021/10/07 09:02:09;;;;;;;6.72;3.25;;;;;;;14.09;100.00;98882.94;5015811;28;20050;-82
2021/10/07 09:04:37;;;;;;;9.50;4.10;;;;;;;14.23;100.00;98884.50;4993077;28;20034;-82
2021/10/07 09:07:04;;;;;;;8.23;3.85;;;;;;;14.46;100.00;98877.16;5012022;28;20121;-82
2021/10/07 09:09:33;;;;;;;5.50;3.10;;;;;;;14.41;100.00;98888.19;5030812;28;20050;-82
2021/10/07 09:12:06;;;;;;;6.20;3.85;;;;;;;14.77;100.00;98882.66;5024196;28;20114;-82
2021/10/07 09:14:41;;;;;;;13.25;4.20;;;;;;;14.58;100.00;98877.41;5001950;28;20037;-83
2021/10/07 09:17:10;;;;;;;9.35;3.92;;;;;;;14.80;100.00;98869.22;4984415;28;20041;-83
2021/10/07 09:19:43;;;;;;;10.77;4.10;;;;;;;15.20;100.00;98856.41;5002581;28;20046;-83
2021/10/07 09:22:28;;;;;;;8.15;3.83;;;;;;;15.39;100.00;98878.81;5005235;28;20045;-80
2021/10/07 09:25:00;;;;;;;8.60;4.03;;;;;;;15.65;100.00;98869.91;5005169;28;20134;-83
2021/10/07 09:27:27;;;;;;;9.20;4.10;;;;;;;16.06;100.00;98881.22;5018468;28;20046;-82
2021/10/07 09:30:09;;;;;;;10.48;3.88;;;;;;;16.42;100.00;98857.13;5002462;28;20054;-81
2021/10/07 09:32:44;;;;;;;8.60;3.40;;;;;;;16.98;100.00;98867.00;5026853;28;20323;-82
2021/10/07 09:35:16;;;;;;;5.55;2.70;;;;;;;18.23;100.00;98860.72;5014469;28;20100;-82
2021/10/07 09:37:48;;;;;;;7.85;2.58;;;;;;;17.88;100.00;98873.91;5024075;28;20084;-82
2021/10/07 09:40:25;;;;;;;6.75;2.70;;;;;;;18.02;94.65;98877.19;5007464;28;20109;-81
2021/10/07 09:42:54;;;;;;;6.85;2.80;;;;;;;17.82;100.00;98875.22;5005326;28;20072;-82
2021/10/07 09:45:29;;;;;;;7.55;2.67;;;;;;;18.71;92.31;98871.16;5005704;28;20048;-81
2021/10/07 09:48:05;;;;;;;5.80;2.43;;;;;;;20.56;64.39;98857.53;5020538;28;20048;-82
2021/10/07 09:50:40;;;;;;;9.40;2.95;;;;;;;20.54;63.20;98856.28;5002236;28;20046;-82
2021/10/07 09:53:14;;;;;;;10.43;2.17;;;;;;;21.86;58.11;98862.09;5001399;28;20509;-82
2021/10/07 09:55:48;;;;;;;5.55;2.13;;;;;;;21.77;57.18;98864.19;5018854;28;20045;-82
2021/10/07 09:58:19;;;;;;;5.20;2.20;;;;;;;21.74;55.92;98865.72;5000456;28;20058;-82
2021/10/07 10:00:51;;;;;;;5.18;2.28;;;;;;;20.78;55.09;98847.88;5001248;28;20099;-81
2021/10/07 10:03:21;;;;;;;5.13;2.10;;;;;;;21.93;54.35;98854.78;5000503;28;20042;-81
2021/10/07 10:05:49;;;;;;;6.57;2.15;;;;;;;24.03;48.83;98841.69;5017495;28;20042;-82
2021/10/07 10:08:19;;;;;;;5.13;1.90;;;;;;;24.59;45.45;98839.72;5000028;28;20092;-81
2021/10/07 10:10:48;;;;;;;7.40;2.45;;;;;;;24.04;44.74;98835.81;4999720;28;20145;-83
2021/10/07 10:13:16;;;;;;;4.88;1.80;;;;;;;24.28;45.87;98847.63;5001382;28;20056;-83
2021/10/07 10:15:43;;;;;;;4.75;1.90;;;;;;;26.04;41.44;98837.47;5000125;28;20042;-83
2021/10/07 10:18:12;;;;;;;6.47;2.40;;;;;;;24.69;43.59;98836.28;5017666;28;20060;-82
2021/10/07 10:20:53;;;;;;;9.23;2.20;;;;;;;24.32;42.46;98834.59;4984775;28;20391;-82
2021/10/07 10:23:23;;;;;;;5.03;2.00;;;;;;;25.17;42.62;98836.38;4999796;28;20145;-83
2021/10/07 10:25:55;;;;;;;5.22;2.03;;;;;;;26.12;40.90;98837.13;4997678;28;20061;-82
2021/10/07 10:28:39;;;;;;;7.75;2.47;;;;;;;25.45;41.99;98841.38;5002473;28;20042;-83
2021/10/07 10:31:14;;;;;;;4.45;2.20;;;;;;;26.78;38.91;98843.41;4997402;28;20049;-81
2021/10/07 10:33:43;;;;;;;7.50;2.13;;;;;;;27.12;38.55;98844.66;4985611;28;20049;-83
2021/10/07 10:36:25;;;;;;;4.82;2.38;;;;;;;27.39;37.64;98845.91;5020814;28;20297;-82
2021/10/07 10:39:10;;;;;;;5.35;2.00;;;;;;;24.82;40.06;98847.09;4998177;28;20696;-82
2021/10/07 10:42:01;;;;;;;5.45;2.30;;;;;;;25.98;40.35;98857.25;5015940;28;20045;-82
2021/10/07 10:44:28;;;;;;;4.43;2.30;;;;;;;25.00;43.80;98857.22;5018251;28;20052;-82
2021/10/07 10:47:01;;;;;;;8.13;2.70;;;;;;;27.40;38.41;98849.50;5015554;28;20077;-83
2021/10/07 10:49:50;;;;;;;5.97;1.98;;;;;;;27.29;38.71;98854.22;5016518;28;20064;-82
2021/10/07 10:52:19;;;;;;;4.63;1.90;;;;;;;24.22;41.14;98849.91;5002637;28;20048;-83
2021/10/07 10:54:49;;;;;;;6.38;1.83;;;;;;;25.36;42.37;98855.56;5008803;28;20042;-83
2021/10/07 10:57:40;;;;;;;5.57;1.90;;;;;;;26.87;39.14;98858.50;5004399;28;20511;-83
2021/10/07 11:00:32;;;;;;;4.35;1.75;;;;;;;27.02;37.69;98862.91;4994724;28;20065;-82
2021/10/07 11:03:08;;;;;;;6.40;2.13;;;;;;;27.86;36.80;98864.19;4998377;28;20042;-82
2021/10/07 11:05:41;;;;;;;5.28;1.77;;;;;;;27.60;37.15;98861.81;4997536;28;20038;-83
2021/10/07 11:08:19;;;;;;;4.88;1.70;;;;;;;27.99;35.61;98854.22;5014258;28;20085;-82
2021/10/07 11:11:07;;;;;;;4.35;1.90;;;;;;;29.09;34.21;98854.59;4984101;28;20058;-81
2021/10/07 11:13:44;;;;;;;3.70;1.80;;;;;;;28.67;35.46;98855.66;5015967;28;20125;-82
2021/10/07 11:16:16;;;;;;;4.65;1.63;;;;;;;26.66;39.74;98872.28;4995166;28;20206;-83
2021/10/07 11:18:43;;;;;;;4.63;1.90;;;;;;;26.36;39.01;98855.09;5005073;28;20120;-81
2021/10/07 11:21:16;;;;;;;6.93;2.20;;;;;;;25.70;39.72;98862.63;5012670;28;20046;-81
2021/10/07 11:23:50;;;;;;;4.15;1.70;;;;;;;23.55;43.91;98857.19;4997410;28;20049;-81
2021/10/07 11:26:18;;;;;;;3.15;1.90;;;;;;;23.05;44.39;98846.44;4999552;28;20038;-82
2021/10/07 11:28:46;;;;;;;5.88;2.00;;;;;;;24.97;42.64;98851.63;5018790;28;20132;-82
2021/10/07 11:31:16;;;;;;;4.53;1.98;;;;;;;27.15;38.89;98850.22;5012303;28;20037;-83
2021/10/07 11:33:54;;;;;;;5.50;2.03;;;;;;;25.36;40.45;98842.50;5013786;28;20049;-82